KSCK/SCK METAR and TAF weather

Enter ICAO airport designator
Station Type Date Time Source
KSCK METAR 2021/01/16 02:55 UTC NOAA

KSCK 160255Z AUTO 29005KT 6SM HZ CLR 12/08 A3025 RMK AO2 SLP244 T01170083 53002


Station Type Date Time Source
KSCK Decoded METAR 2021/01/16 02:55 UTC NOAA

STOCKTON METROPOLITAN AIRPORT , CA, United States (KSCK) 37-54N 121-14W 10M
Jan 15, 2021 - 09:55 PM EST / 2021.01.16 0255 UTC
Wind: from the WNW (290 degrees) at 6 MPH (5 KT):0
Visibility: 6 mile(s):0
Sky conditions: clear
Weather: haze
Temperature: 53.1 F (11.7 C)
Dew Point: 46.9 F (8.3 C)
Relative Humidity: 79%
Pressure (altimeter): 30.25 in. Hg (1024 hPa)
Pressure tendency: 0.01 inches (0.2 hPa) higher than three hours ago
ob: KSCK 160255Z AUTO 29005KT 6SM HZ CLR 12/08 A3025 RMK AO2 SLP244 T01170083 53002
cycle: 3

Station Type Date Time Source
KSCK TAF 2021/01/15 18:48 UTC NOAA

TAF KSCK 151745Z 1518/1618 VRB04KT 1/2SM FG OVC002
FM152000 32004KT 1 1/2SM BR BKN004
TEMPO 1520/1522 4SM HZ SCT005 BKN250
FM152200 29005KT 6SM HZ BKN250
FM160900 30005KT 2SM BR BKN250
FM161200 31005KT 1/2SM FG OVC002
TEMPO 1614/1618 1/4SM FG VV001

Example: see airport list